createdAt,value
2024-05-09T00:00:42.159Z,102821.98
2024-05-09T00:04:13.936Z,102825.70
2024-05-09T00:06:40.746Z,102810.10
2024-05-09T00:09:07.777Z,102809.73
2024-05-09T00:12:50.788Z,102809.03
2024-05-09T00:15:17.598Z,102809.35
2024-05-09T00:17:44.570Z,102809.52
2024-05-09T00:20:17.876Z,102808.96
2024-05-09T00:22:51.170Z,102804.72
2024-05-09T00:25:18.131Z,102802.44
2024-05-09T00:27:44.835Z,102801.22
2024-05-09T00:30:17.579Z,102798.59
2024-05-09T00:32:51.080Z,102799.13
2024-05-09T00:35:18.703Z,102799.85
2024-05-09T00:37:45.540Z,102801.27
2024-05-09T00:40:18.766Z,102798.82
2024-05-09T00:42:53.811Z,102798.84
2024-05-09T00:45:20.650Z,102801.14
2024-05-09T00:47:48.138Z,102801.69
2024-05-09T00:50:19.501Z,102798.02
2024-05-09T00:52:53.132Z,102792.25
2024-05-09T00:55:20.695Z,102793.34
2024-05-09T00:57:48.101Z,102797.94
2024-05-09T01:00:26.000Z,102798.30
2024-05-09T01:02:58.039Z,102797.96
2024-05-09T01:05:25.087Z,102805.67
2024-05-09T01:07:52.067Z,102802.83
2024-05-09T01:10:27.460Z,102807.20
2024-05-09T01:12:59.036Z,102801.39
2024-05-09T01:15:25.984Z,102797.69
2024-05-09T01:17:55.669Z,102794.71
2024-05-09T01:20:31.874Z,102795.61
2024-05-09T01:23:07.771Z,102792.48
2024-05-09T01:25:35.529Z,102793.55
2024-05-09T01:28:02.552Z,102794.44
2024-05-09T01:30:34.743Z,102800.78
2024-05-09T01:33:05.657Z,102805.20
2024-05-09T01:35:33.881Z,102808.02
2024-05-09T01:38:01.020Z,102809.29
2024-05-09T01:40:36.447Z,102797.38
2024-05-09T01:43:06.360Z,102789.86
2024-05-09T01:45:33.379Z,102792.86
2024-05-09T01:48:01.128Z,102788.49
2024-05-09T01:50:37.733Z,102778.14
2024-05-09T01:53:14.174Z,102768.66
2024-05-09T01:55:42.061Z,102760.43
2024-05-09T01:58:09.804Z,102755.34
2024-05-09T02:00:40.767Z,102750.79
2024-05-09T02:03:14.466Z,102745.03
2024-05-09T02:05:45.106Z,102737.00
2024-05-09T02:08:20.066Z,102730.89
2024-05-09T02:10:48.923Z,102726.52
2024-05-09T02:13:16.722Z,102721.50
2024-05-09T02:15:44.378Z,102716.48
2024-05-09T02:18:11.691Z,102719.15
2024-05-09T02:20:40.896Z,102719.89
2024-05-09T02:23:08.870Z,102716.79
2024-05-09T02:25:35.789Z,102718.06
2024-05-09T02:28:02.800Z,102709.32
2024-05-09T02:30:38.535Z,102699.70
2024-05-09T02:33:09.967Z,102700.58
2024-05-09T02:35:38.503Z,102694.61
2024-05-09T02:38:05.746Z,102691.97
2024-05-09T02:40:36.811Z,102684.24
2024-05-09T02:43:10.266Z,102687.05
2024-05-09T02:45:38.999Z,102684.79
2024-05-09T02:48:07.174Z,102687.61
2024-05-09T02:50:38.540Z,102682.19
2024-05-09T02:53:08.134Z,102684.13
2024-05-09T02:55:35.577Z,102685.02
2024-05-09T02:58:02.469Z,102684.79
2024-05-09T03:00:37.211Z,102682.15
2024-05-09T03:03:08.502Z,102683.54
2024-05-09T03:05:36.694Z,102680.92
2024-05-09T03:08:04.166Z,102679.19
2024-05-09T03:10:36.003Z,102676.77
2024-05-09T03:13:13.569Z,102675.05
2024-05-09T03:15:42.053Z,102669.82
2024-05-09T03:18:09.261Z,102671.08
2024-05-09T03:20:37.166Z,102669.19
2024-05-09T03:23:06.318Z,102673.41
2024-05-09T03:25:33.947Z,102667.84
2024-05-09T03:28:00.987Z,102668.20
2024-05-09T03:30:38.912Z,102660.16
2024-05-09T03:33:13.955Z,102654.03
2024-05-09T03:35:42.872Z,102655.27
2024-05-09T03:38:10.162Z,102656.50
2024-05-09T03:40:44.070Z,102654.58
2024-05-09T03:43:11.034Z,102658.79
2024-05-09T03:45:38.036Z,102656.00
2024-05-09T03:48:05.552Z,102655.66
2024-05-09T03:50:35.619Z,102653.40
2024-05-09T03:53:04.024Z,102643.95
2024-05-09T03:55:31.162Z,102637.31
2024-05-09T03:57:58.506Z,102633.96
2024-05-09T04:00:34.194Z,102632.40
2024-05-09T04:03:07.268Z,102631.71
2024-05-09T04:05:36.563Z,102630.67
2024-05-09T04:08:03.867Z,102625.25
2024-05-09T04:10:33.899Z,102625.95
2024-05-09T04:13:03.193Z,102618.97
2024-05-09T04:15:30.389Z,102613.20
2024-05-09T04:17:57.522Z,102611.98
2024-05-09T04:20:33.944Z,102614.95
2024-05-09T04:23:06.695Z,102616.17
2024-05-09T04:25:33.953Z,102614.96
2024-05-09T04:28:00.931Z,102618.64
2024-05-09T04:30:36.452Z,102617.60
2024-05-09T04:33:08.280Z,102617.95
2024-05-09T04:35:37.301Z,102614.61
2024-05-09T04:38:05.163Z,102613.38
2024-05-09T04:40:35.375Z,102613.39
2024-05-09T04:43:05.372Z,102606.75
2024-05-09T04:45:32.715Z,102601.33
2024-05-09T04:47:59.964Z,102599.40
2024-05-09T04:50:35.581Z,102595.90
2024-05-09T04:53:06.910Z,102592.23
2024-05-09T04:55:36.372Z,102593.27
2024-05-09T04:58:03.647Z,102597.48
2024-05-09T05:00:36.335Z,102598.88
2024-05-09T05:03:10.066Z,102592.73
2024-05-09T05:05:42.599Z,102594.31
2024-05-09T05:08:18.205Z,102595.56
2024-05-09T05:10:47.473Z,102595.54
2024-05-09T05:13:23.260Z,102601.66
2024-05-09T05:15:55.374Z,102602.36
2024-05-09T05:18:22.615Z,102601.33
2024-05-09T05:20:49.529Z,102588.55
2024-05-09T05:23:19.691Z,102591.35
2024-05-09T05:25:48.434Z,102589.77
2024-05-09T05:28:19.798Z,102582.44
2024-05-09T05:30:46.853Z,102590.30
2024-05-09T05:33:15.076Z,102593.45
2024-05-09T05:35:42.536Z,102598.88
2024-05-09T05:38:10.990Z,102597.48
2024-05-09T05:40:39.227Z,102601.31
2024-05-09T05:43:08.908Z,102607.60
2024-05-09T05:45:35.836Z,102606.70
2024-05-09T05:48:07.465Z,102605.31
2024-05-09T05:50:37.332Z,102599.17
2024-05-09T05:53:06.458Z,102593.23
2024-05-09T05:55:33.428Z,102592.01
2024-05-09T05:58:01.954Z,102590.95
2024-05-09T06:00:35.016Z,102586.23
2024-05-09T06:03:06.122Z,102585.69
2024-05-09T06:05:33.591Z,102588.30
2024-05-09T06:08:00.931Z,102591.23
2024-05-09T06:10:37.236Z,102594.67
2024-05-09T06:13:07.983Z,102599.70
2024-05-09T06:15:34.834Z,102611.19
2024-05-09T06:18:04.619Z,102614.27
2024-05-09T06:20:36.160Z,102614.21
2024-05-09T06:23:09.158Z,102617.88
2024-05-09T06:25:36.930Z,102619.44
2024-05-09T06:28:04.201Z,102623.45
2024-05-09T06:33:03.323Z,102621.55
2024-05-09T06:35:30.426Z,102612.10
2024-05-09T06:37:57.832Z,102598.08
2024-05-09T06:40:29.431Z,102580.56
2024-05-09T06:43:02.432Z,102573.55
2024-05-09T06:45:29.576Z,102562.85
2024-05-09T06:47:56.506Z,102558.66
2024-05-09T06:50:28.284Z,102560.75
2024-05-09T06:52:58.720Z,102557.77
2024-05-09T06:55:25.777Z,102551.13
2024-05-09T06:57:52.631Z,102551.67
2024-05-09T07:00:27.432Z,102549.59
2024-05-09T07:03:05.723Z,102548.73
2024-05-09T07:05:33.671Z,102546.96
2024-05-09T07:08:00.739Z,102549.90
2024-05-09T07:10:33.074Z,102547.41
2024-05-09T07:13:02.340Z,102542.44
2024-05-09T07:15:29.319Z,102540.06
2024-05-09T07:17:56.386Z,102538.25
2024-05-09T07:20:32.336Z,102533.48
2024-05-09T07:23:04.507Z,102530.63
2024-05-09T07:25:31.707Z,102534.41
2024-05-09T07:27:58.982Z,102531.05
2024-05-09T07:30:32.876Z,102534.17
2024-05-09T07:33:02.554Z,102535.75
2024-05-09T07:35:31.052Z,102539.42
2024-05-09T07:37:58.542Z,102538.05
2024-05-09T07:40:33.097Z,102534.23
2024-05-09T07:43:08.281Z,102529.70
2024-05-09T07:53:36.769Z,102515.86
2024-05-09T07:55:56.811Z,102514.10
2024-05-09T07:58:27.643Z,102506.94
2024-05-09T08:00:54.865Z,102500.81
2024-05-09T08:03:22.633Z,102494.00
2024-05-09T08:05:49.802Z,102495.96
2024-05-09T08:08:16.866Z,102498.42
2024-05-09T08:10:43.825Z,102496.68
2024-05-09T08:13:10.939Z,102496.14
2024-05-09T08:15:38.177Z,102488.22
2024-05-09T08:18:10.589Z,102485.20
2024-05-09T08:20:38.898Z,102482.33
2024-05-09T08:23:06.032Z,102479.73
2024-05-09T08:25:33.234Z,102489.20
2024-05-09T08:28:00.044Z,102487.28
2024-05-09T08:30:33.481Z,102484.78
2024-05-09T08:33:05.110Z,102480.31
2024-05-09T08:35:33.184Z,102488.50
2024-05-09T08:38:00.150Z,102492.84
2024-05-09T08:40:34.212Z,102496.88
2024-05-09T08:43:07.079Z,102496.20
2024-05-09T08:45:35.719Z,102495.86
2024-05-09T08:48:05.938Z,102490.23
2024-05-09T08:50:38.744Z,102487.77
2024-05-09T08:53:10.019Z,102491.29
2024-05-09T08:55:40.675Z,102490.73
2024-05-09T08:58:17.026Z,102488.05
2024-05-09T09:00:45.297Z,102481.88
2024-05-09T09:03:17.384Z,102476.21
2024-05-09T09:06:01.714Z,102467.33
2024-05-09T09:08:28.818Z,102462.64
2024-05-09T09:10:59.160Z,102464.88
2024-05-09T09:13:26.819Z,102463.75
2024-05-09T09:15:57.553Z,102460.10
2024-05-09T09:18:26.301Z,102460.76
2024-05-09T09:20:53.821Z,102461.48
2024-05-09T09:23:20.895Z,102459.58
2024-05-09T09:25:47.956Z,102457.40
2024-05-09T09:28:15.379Z,102461.95
2024-05-09T09:30:43.340Z,102463.20
2024-05-09T09:33:11.904Z,102463.17
2024-05-09T09:35:41.982Z,102459.66
2024-05-09T09:38:10.663Z,102457.58
2024-05-09T09:40:46.794Z,102456.34
2024-05-09T09:43:21.379Z,102450.16
2024-05-09T09:45:51.685Z,102449.06
2024-05-09T09:48:21.404Z,102449.66
2024-05-09T09:50:51.764Z,102447.60
2024-05-09T09:53:19.554Z,102450.67
2024-05-09T09:55:47.035Z,102449.52
2024-05-09T09:58:16.814Z,102451.09
2024-05-09T10:00:44.442Z,102446.80
2024-05-09T10:03:11.957Z,102443.17
2024-05-09T10:05:42.044Z,102439.05
2024-05-09T10:08:13.021Z,102438.88
2024-05-09T10:10:45.741Z,102435.78
2024-05-09T10:13:13.083Z,102432.33
2024-05-09T10:16:06.838Z,102425.44
2024-05-09T10:18:41.071Z,102425.84
2024-05-09T10:21:19.495Z,102417.13
2024-05-09T10:24:09.065Z,102416.55
2024-05-09T10:26:37.638Z,102417.34
2024-05-09T10:29:15.145Z,102426.52
2024-05-09T10:31:42.990Z,102425.71
2024-05-09T10:34:23.807Z,102423.05
2024-05-09T10:36:54.987Z,102423.90
2024-05-09T10:39:22.603Z,102425.79
2024-05-09T10:41:49.666Z,102417.98
2024-05-09T10:44:17.104Z,102416.98
2024-05-09T10:46:47.496Z,102408.30
2024-05-09T10:49:15.069Z,102413.02
2024-05-09T10:51:44.480Z,102411.53
2024-05-09T10:54:11.679Z,102414.44
2024-05-09T10:56:38.473Z,102405.05
2024-05-09T10:59:05.628Z,102404.30
2024-05-09T11:01:32.747Z,102401.81
2024-05-09T11:03:59.945Z,102403.71
2024-05-09T11:06:27.338Z,102405.43
2024-05-09T11:08:54.588Z,102403.23
2024-05-09T11:11:21.883Z,102394.36
2024-05-09T11:13:48.604Z,102393.36
2024-05-09T11:16:21.881Z,102392.23
2024-05-09T11:18:56.585Z,102391.02
2024-05-09T11:21:24.484Z,102387.42
2024-05-09T11:23:51.821Z,102380.36
2024-05-09T11:26:20.629Z,102381.48
2024-05-09T11:28:47.798Z,102384.08
2024-05-09T11:31:14.704Z,102384.75
2024-05-09T11:33:44.159Z,102388.81
2024-05-09T11:36:12.043Z,102385.38
2024-05-09T11:38:39.292Z,102382.05
2024-05-09T11:41:06.864Z,102378.18
2024-05-09T11:43:33.950Z,102375.02
2024-05-09T11:46:03.200Z,102375.35
2024-05-09T11:48:31.243Z,102377.81
2024-05-09T11:50:58.646Z,102379.96
2024-05-09T11:53:25.799Z,102378.05
2024-05-09T11:55:52.643Z,102374.20
2024-05-09T11:58:21.381Z,102378.27
2024-05-09T12:00:48.749Z,102378.64
2024-05-09T12:03:16.304Z,102377.16
2024-05-09T12:05:43.369Z,102373.02
2024-05-09T12:08:10.580Z,102371.71
2024-05-09T12:10:37.902Z,102370.55
2024-05-09T12:13:06.657Z,102373.25
2024-05-09T12:15:37.878Z,102374.61
2024-05-09T12:18:07.302Z,102376.90
2024-05-09T12:20:37.902Z,102375.00
2024-05-09T12:23:09.755Z,102375.40
2024-05-09T12:25:39.514Z,102370.92
2024-05-09T12:28:07.668Z,102366.34
2024-05-09T12:30:38.639Z,102363.04
2024-05-09T12:33:09.175Z,102361.45
2024-05-09T12:35:36.488Z,102361.58
2024-05-09T12:38:03.351Z,102362.44
2024-05-09T12:40:36.284Z,102361.44
2024-05-09T12:43:09.833Z,102361.40
2024-05-09T12:45:38.287Z,102353.00
2024-05-09T12:48:08.311Z,102354.06
2024-05-09T12:50:35.976Z,102350.71
2024-05-09T12:53:04.392Z,102348.52
2024-05-09T12:55:43.854Z,102350.02
2024-05-09T12:58:17.546Z,102345.03
2024-05-09T13:00:45.128Z,102341.71
2024-05-09T13:03:12.179Z,102340.39
2024-05-09T13:05:41.113Z,102337.40
2024-05-09T13:08:08.677Z,102333.19
2024-05-09T13:10:35.886Z,102332.94
2024-05-09T13:13:03.029Z,102339.02
2024-05-09T13:15:31.575Z,102333.23
2024-05-09T13:18:02.178Z,102332.77
2024-05-09T13:20:34.068Z,102336.39
2024-05-09T13:23:08.089Z,102336.52
2024-05-09T13:25:36.986Z,102327.38
2024-05-09T13:28:05.438Z,102321.48
2024-05-09T13:30:40.079Z,102318.22
2024-05-09T13:33:13.939Z,102312.39
2024-05-09T13:35:47.133Z,102312.42
2024-05-09T13:38:21.201Z,102308.34
2024-05-09T13:40:49.880Z,102306.98
2024-05-09T13:43:18.068Z,102307.02
2024-05-09T13:45:45.331Z,102311.35
2024-05-09T13:48:12.525Z,102304.59
2024-05-09T13:50:39.902Z,102303.98
2024-05-09T13:53:08.253Z,102305.86
2024-05-09T13:55:39.397Z,102307.08
2024-05-09T13:58:07.429Z,102306.64
2024-05-09T14:00:44.280Z,102307.38
2024-05-09T14:03:17.007Z,102300.17
2024-05-09T14:05:46.272Z,102297.83
2024-05-09T14:08:15.236Z,102298.15
2024-05-09T14:10:44.472Z,102293.17
2024-05-09T14:13:12.351Z,102295.16
2024-05-09T14:15:39.490Z,102289.63
2024-05-09T14:18:10.374Z,102286.41
2024-05-09T14:20:39.751Z,102276.73
2024-05-09T14:23:06.698Z,102275.66
2024-05-09T14:25:35.088Z,102264.50
2024-05-09T14:28:04.157Z,102258.09
2024-05-09T14:30:36.663Z,102257.95
2024-05-09T14:33:07.097Z,102250.58
2024-05-09T14:35:35.022Z,102245.03
2024-05-09T14:38:02.833Z,102242.33
2024-05-09T14:40:40.248Z,102241.27
2024-05-09T14:43:11.743Z,102233.91
2024-05-09T14:45:39.212Z,102234.48
2024-05-09T14:48:07.541Z,102226.80
2024-05-09T14:50:38.234Z,102226.15
2024-05-09T14:53:11.103Z,102221.92
2024-05-09T14:55:40.739Z,102215.27
2024-05-09T14:58:10.407Z,102213.66
2024-05-09T15:00:44.424Z,102206.56
2024-05-09T15:03:15.088Z,102207.73
2024-05-09T15:05:42.521Z,102206.29
2024-05-09T15:08:09.633Z,102207.41
2024-05-09T15:10:37.492Z,102203.95
2024-05-09T15:13:07.211Z,102198.99
2024-05-09T15:15:35.779Z,102191.83
2024-05-09T15:18:04.571Z,102190.58
2024-05-09T15:20:35.789Z,102192.45
2024-05-09T15:23:04.971Z,102197.34
2024-05-09T15:25:33.542Z,102195.13
2024-05-09T15:28:00.494Z,102188.23
2024-05-09T15:30:31.886Z,102185.60
2024-05-09T15:33:03.925Z,102185.70
2024-05-09T15:35:31.406Z,102180.81
2024-05-09T15:37:58.441Z,102174.96
2024-05-09T15:40:31.632Z,102178.34
2024-05-09T15:43:06.294Z,102176.63
2024-05-09T15:45:34.260Z,102178.11
2024-05-09T15:48:02.996Z,102174.83
2024-05-09T15:50:37.057Z,102168.52
2024-05-09T15:53:08.697Z,102167.06
2024-05-09T15:55:36.392Z,102162.19
2024-05-09T15:58:04.321Z,102156.92
2024-05-09T16:03:01.755Z,102155.94
2024-05-09T16:05:28.856Z,102151.83
2024-05-09T16:07:55.915Z,102145.61
2024-05-09T16:10:26.208Z,102145.70
2024-05-09T16:12:59.229Z,102144.08
2024-05-09T16:15:26.051Z,102141.11
2024-05-09T16:17:53.860Z,102138.95
2024-05-09T16:20:29.722Z,102137.92
2024-05-09T16:23:05.570Z,102133.11
2024-05-09T16:25:32.314Z,102128.13
2024-05-09T16:27:59.581Z,102123.14
2024-05-09T16:30:33.731Z,102123.04
2024-05-09T16:33:04.290Z,102121.98
2024-05-09T16:35:32.002Z,102116.33
2024-05-09T16:37:58.885Z,102117.27
2024-05-09T16:40:34.479Z,102115.71
2024-05-09T16:43:06.166Z,102117.59
2024-05-09T16:45:33.292Z,102118.55
2024-05-09T16:48:00.966Z,102115.97
2024-05-09T16:50:32.787Z,102113.33
2024-05-09T16:53:03.265Z,102106.45
2024-05-09T16:55:30.474Z,102102.98
2024-05-09T16:57:58.501Z,102098.75
2024-05-09T17:00:35.826Z,102097.25
2024-05-09T17:03:09.320Z,102091.57
2024-05-09T17:05:36.945Z,102087.20
2024-05-09T17:08:04.343Z,102081.23
2024-05-09T17:10:33.900Z,102077.98
2024-05-09T17:13:04.288Z,102075.07
2024-05-09T17:15:32.499Z,102070.65
2024-05-09T17:17:59.612Z,102072.13
2024-05-09T17:20:32.790Z,102072.16
2024-05-09T17:23:03.877Z,102062.86
2024-05-09T17:25:30.897Z,102062.77
2024-05-09T17:28:05.299Z,102058.54
2024-05-09T17:30:36.747Z,102051.92
2024-05-09T17:33:07.488Z,102051.96
2024-05-09T17:35:36.107Z,102048.41
2024-05-09T17:38:04.245Z,102047.58
2024-05-09T17:40:35.040Z,102044.23
2024-05-09T17:43:05.251Z,102045.89
2024-05-09T17:45:32.835Z,102038.95
2024-05-09T17:48:00.376Z,102038.08
2024-05-09T17:50:34.902Z,102039.94
2024-05-09T17:53:09.056Z,102044.33
2024-05-09T17:55:36.522Z,102041.90
2024-05-09T17:58:05.004Z,102035.70
2024-05-09T18:00:38.216Z,102032.48
2024-05-09T18:03:08.860Z,102026.26
2024-05-09T18:05:37.046Z,102024.03
2024-05-09T18:08:06.211Z,102025.22
2024-05-09T18:10:37.458Z,102020.59
2024-05-09T18:13:10.509Z,102012.21
2024-05-09T18:15:38.328Z,102012.70
2024-05-09T18:18:06.059Z,102012.48
2024-05-09T18:20:42.076Z,102004.02
2024-05-09T18:23:14.841Z,102005.67
2024-05-09T18:25:42.750Z,102002.10
2024-05-09T18:28:10.103Z,101997.02
2024-05-09T18:30:37.803Z,101997.91
2024-05-09T18:33:07.363Z,101998.02
2024-05-09T18:35:35.731Z,101997.80
2024-05-09T18:38:03.471Z,101995.75
2024-05-09T18:40:34.605Z,101989.38
2024-05-09T18:43:06.475Z,101990.86
2024-05-09T18:45:35.381Z,101994.57
2024-05-09T18:48:04.651Z,101991.85
2024-05-09T18:50:36.184Z,101988.98
2024-05-09T18:53:06.274Z,101987.90
2024-05-09T18:55:33.681Z,101987.23
2024-05-09T18:58:00.720Z,101982.88
2024-05-09T19:00:34.521Z,101979.95
2024-05-09T19:03:08.938Z,101975.82
2024-05-09T19:05:38.430Z,101974.75
2024-05-09T19:08:07.292Z,101966.45
2024-05-09T19:10:35.755Z,101965.61
2024-05-09T19:13:08.159Z,101964.23
2024-05-09T19:15:38.882Z,101964.20
2024-05-09T19:18:06.404Z,101959.60
2024-05-09T19:20:35.332Z,101961.03
2024-05-09T19:23:04.402Z,101956.92
2024-05-09T19:25:31.754Z,101957.29
2024-05-09T19:27:58.656Z,101954.50
2024-05-09T19:30:34.840Z,101946.95
2024-05-09T19:33:07.738Z,101946.80
2024-05-09T19:35:34.806Z,101943.89
2024-05-09T19:38:02.134Z,101942.02
2024-05-09T19:40:32.133Z,101941.16
2024-05-09T19:43:02.609Z,101934.36
2024-05-09T19:45:30.558Z,101932.68
2024-05-09T19:47:57.920Z,101930.83
2024-05-09T19:50:32.774Z,101927.02
2024-05-09T19:53:08.601Z,101927.07
2024-05-09T19:55:35.442Z,101924.27
2024-05-09T19:58:05.300Z,101923.45
2024-05-09T20:00:39.476Z,101922.70
2024-05-09T20:03:10.003Z,101920.67
2024-05-09T20:05:38.403Z,101918.55
2024-05-09T20:08:06.218Z,101915.61
2024-05-09T20:10:35.374Z,101914.60
2024-05-09T20:13:04.858Z,101913.36
2024-05-09T20:15:35.195Z,101907.73
2024-05-09T20:18:02.899Z,101907.73
2024-05-09T20:20:37.360Z,101908.91
2024-05-09T20:23:09.061Z,101902.21
2024-05-09T20:25:36.137Z,101897.91
2024-05-09T20:28:03.168Z,101899.52
2024-05-09T20:30:32.922Z,101892.43
2024-05-09T20:33:03.411Z,101893.06
2024-05-09T20:35:34.936Z,101892.05
2024-05-09T20:38:03.151Z,101885.59
2024-05-09T20:40:34.769Z,101883.34
2024-05-09T20:43:06.144Z,101886.89
2024-05-09T20:45:33.693Z,101886.92
2024-05-09T20:48:00.842Z,101882.00
2024-05-09T20:50:36.806Z,101880.77
2024-05-09T20:53:13.094Z,101882.39
2024-05-09T20:55:41.646Z,101884.98
2024-05-09T20:58:09.634Z,101881.88
2024-05-09T21:00:40.556Z,101877.20
2024-05-09T21:03:11.760Z,101878.86
2024-05-09T21:05:40.441Z,101882.02
2024-05-09T21:08:08.582Z,101879.77
2024-05-09T21:10:36.384Z,101878.60
2024-05-09T21:13:04.686Z,101878.06
2024-05-09T21:15:32.231Z,101878.73
2024-05-09T21:17:59.492Z,101879.80
2024-05-09T21:22:57.382Z,101871.28
2024-05-09T21:25:24.596Z,101871.41
2024-05-09T21:27:52.085Z,101870.19
2024-05-09T21:30:28.210Z,101871.63
2024-05-09T21:33:05.325Z,101867.36
2024-05-09T21:35:32.414Z,101867.38
2024-05-09T21:37:59.182Z,101863.70
2024-05-09T21:40:33.399Z,101865.17
2024-05-09T21:43:02.984Z,101861.93
2024-05-09T21:45:29.997Z,101855.33
2024-05-09T21:47:57.020Z,101854.08
2024-05-09T21:50:31.831Z,101856.22
2024-05-09T21:53:06.180Z,101851.54
2024-05-09T21:55:33.241Z,101853.68
2024-05-09T21:58:00.328Z,101849.14
2024-05-09T22:00:34.761Z,101847.70
2024-05-09T22:03:05.964Z,101840.32
2024-05-09T22:05:33.162Z,101843.82
2024-05-09T22:08:00.442Z,101841.74
2024-05-09T22:10:33.507Z,101839.78
2024-05-09T22:13:03.221Z,101841.44
2024-05-09T22:15:36.993Z,101837.69
2024-05-09T22:18:05.435Z,101839.79
2024-05-09T22:20:37.305Z,101838.77
2024-05-09T22:23:06.192Z,101839.48
2024-05-09T22:25:33.482Z,101835.27
2024-05-09T22:28:01.883Z,101831.08
2024-05-09T22:30:35.823Z,101831.97
2024-05-09T22:33:10.161Z,101834.28
2024-05-09T22:35:38.582Z,101833.40
2024-05-09T22:38:05.712Z,101828.98
2024-05-09T22:40:42.334Z,101830.71
2024-05-09T22:43:21.525Z,101827.52
2024-05-09T22:45:50.790Z,101825.80
2024-05-09T22:48:18.154Z,101822.02
2024-05-09T22:50:45.124Z,101823.19
2024-05-09T22:53:11.984Z,101815.29
2024-05-09T22:55:38.733Z,101821.27
2024-05-09T22:58:05.658Z,101819.20
2024-05-09T23:00:33.388Z,101817.81
2024-05-09T23:03:00.984Z,101821.27
2024-05-09T23:05:28.712Z,101820.36
2024-05-09T23:07:55.571Z,101823.54
2024-05-09T23:10:30.929Z,101819.59
2024-05-09T23:13:02.533Z,101815.45
2024-05-09T23:15:29.586Z,101818.83
2024-05-09T23:17:57.647Z,101815.38
2024-05-09T23:22:54.743Z,101815.16
2024-05-09T23:25:21.922Z,101811.83
2024-05-09T23:27:49.123Z,101813.93
2024-05-09T23:30:25.847Z,101811.80
2024-05-09T23:33:01.043Z,101809.83
2024-05-09T23:35:28.117Z,101809.87
2024-05-09T23:37:54.897Z,101806.73
2024-05-09T23:40:23.485Z,101804.95
2024-05-09T23:42:53.535Z,101802.45
2024-05-09T23:45:20.358Z,101804.10
2024-05-09T23:47:47.525Z,101799.73
2024-05-09T23:50:20.332Z,101797.92
2024-05-09T23:52:50.791Z,101796.55
2024-05-09T23:55:17.948Z,101799.28
2024-05-09T23:57:45.045Z,101794.75
